Hlavní strana
METAR-TAF:

METAR-TAF

Letiště :

Sandnessjøen, Norsko

zeměpisná šířka: 65-58N, zeměpisná délka: 012-28E, výška: 1 m

Aktuální stav počasí

Zpráva byla vytvořena před 27 minutami, v 17:50 UTC
Severovýchodní vítr 2 kt
Teplota -1°C
Vlhkost vzduchu 64%
Tlak 1019 hPa
Viditelnost 10 km a více
Skoro jasno ve výšce 3500 ft

METAR: ENST 071750Z 05002KT 9999 FEW035 M01/M07 Q1019 RMK WIND 300FT 02005KT

Čas: 19:17 (18:17 UTC)


TAF: chybějící

Stav a předpovědi počasí z více než 4 000 letišť (zprávy METAR a TAF).

Červené a žluté tečky na mapě představují dostupné meteorologické stanice.

Když kurzor umístíte na tečku, zobrazí se název stanice.

Pak kliknutím zobrazíte stav a předpověď počasí.

Chcete-li změnit mapu, kliknutím na zelené tlačítko se znaménkem +mapu přiblížíte, kliknutím na zelené tlačítko se znaménkem – mapu oddálíte a kliknutím na zelené šipky přejdete na sousední mapy.


METAR-TAF: